EBOS Airport Information

Runway Information
Runway 08 Length 10499 ft width 148 ft
Elevation 15 ft Threshold 985 ft Heading 75
Runway 26 Length 10499 ft Width 148 ft
Elevation 13 ft Threshold 1362 ft Heading 256
Runway 14 Length 2057 ft width 148 ft
Elevation 13 ft Threshold ft Heading 137
Runway 32 Length 2057 ft Width 148 ft
Elevation 13 ft Threshold ft Heading 317
Airport Frequencies
Type APP Name APP Frequency 120.6 MHZ
Type GND Name GND Frequency 121.975 MHZ
Type TWR Name TWR Frequency 118.175 MHZ
Type ATIS Name ATIS Frequency 126.12 MHZ
Airport Navaids
Type NDB Name Oostende Frequency 400 KHZ
Airport Weather Information & NOTAM
ADDS - METARS form results

(2259 UTC 05 October 2022)
Data provider http://aviationweather.gov/metar/data/
 
METAR text: EBOS 052250Z 27022KT 9999 FEW045 14/07 Q1022 NOSIG
Conditions at: EBOS (OOSTENDE AIRPORT, BE) observed 2250 UTC 05 October 2022
Temperature: 14.0°C (57°F)
Dewpoint: 7.0°C (45°F) [RH = 63%]
Pressure (altimeter): 30.18 inches Hg (1022.0 mb)
Winds: from the W (270 degrees) at 25 MPH (22 knots; 11.3 m/s)
Visibility: 6 or more miles (10+ km)
Ceiling: at least 12,000 feet AGL
Clouds: few clouds at 4500 feet AGL
Weather: no significant weather observed at this time

METAR text: EBOS 052220Z 27021KT 9999 FEW045 14/07 Q1021 NOSIG
Conditions at: EBOS (OOSTENDE AIRPORT, BE) observed 2220 UTC 05 October 2022
Temperature: 14.0°C (57°F)
Dewpoint: 7.0°C (45°F) [RH = 63%]
Pressure (altimeter): 30.15 inches Hg (1021.0 mb)
Winds: from the W (270 degrees) at 24 MPH (21 knots; 10.8 m/s)
Visibility: 6 or more miles (10+ km)
Ceiling: at least 12,000 feet AGL
Clouds: few clouds at 4500 feet AGL
Weather: no significant weather observed at this time

Forecast for: EBOS (OOSTENDE AIRPORT, BE)
Text: TAF EBOS 051710Z 0518/0624 26018G18KT 9999 BKN025
Forecast period: 1800 UTC 05 October 2022 to 0000 UTC 06 October 2022
Forecast type: FROM: standard forecast or significant change
Winds: from the W (260 degrees) at 21 MPH (18 knots; 9.3 m/s)
gusting to 21 MPH (18 knots; 9.3 m/s)
Visibility: 6 or more miles (10+ km)
Ceiling: 2500 feet AGL
Clouds: broken clouds at 2500 feet AGL
Weather: no significant weather forecast for this period
Text: BECMG 0600/0602 27011KT
Forecast period: 0000 to 1700 UTC 06 October 2022
Forecast type: BECOMING: Conditions expected to become as follows by 0200 UTC 06 October 2022
Winds: from the W (270 degrees) at 13 MPH (11 knots; 5.7 m/s)
Visibility: 6 or more miles (10+ km)
Ceiling: 2500 feet AGL
Clouds: broken clouds at 2500 feet AGL
Weather: no significant weather forecast for this period
Text: BECMG 0617/0619 20008KT
Forecast period: 1700 UTC 06 October 2022 to 0000 UTC 07 October 2022
Forecast type: BECOMING: Conditions expected to become as follows by 1900 UTC 06 October 2022
Winds: from the SSW (200 degrees) at 9 MPH (8 knots; 4.1 m/s)
Visibility: 6 or more miles (10+ km)
Ceiling: 2500 feet AGL
Clouds: broken clouds at 2500 feet AGL
Weather: no significant weather forecast for this period